sensor_id;sensor_type;location;lat;lon;timestamp;P1;durP1;ratioP1;P2;durP2;ratioP2
81006;SDS011;70472;47.592;17.640;2023-12-20T00:00:30;61.97;;;61.70;;
81006;SDS011;70472;47.592;17.640;2023-12-20T00:01:03;60.13;;;59.63;;
81006;SDS011;70472;47.592;17.640;2023-12-20T00:01:35;60.67;;;60.00;;
81006;SDS011;70472;47.592;17.640;2023-12-20T00:02:09;63.03;;;61.77;;
81006;SDS011;70472;47.592;17.640;2023-12-20T00:02:42;64.93;;;63.70;;
81006;SDS011;70472;47.592;17.640;2023-12-20T00:03:14;66.07;;;64.53;;
81006;SDS011;70472;47.592;17.640;2023-12-20T00:03:47;62.50;;;61.67;;
81006;SDS011;70472;47.592;17.640;2023-12-20T00:04:19;60.07;;;59.93;;
81006;SDS011;70472;47.592;17.640;2023-12-20T00:04:52;61.53;;;61.13;;
81006;SDS011;70472;47.592;17.640;2023-12-20T00:05:24;61.30;;;60.53;;
81006;SDS011;70472;47.592;17.640;2023-12-20T00:05:56;61.77;;;61.20;;
81006;SDS011;70472;47.592;17.640;2023-12-20T00:06:29;63.73;;;62.07;;
81006;SDS011;70472;47.592;17.640;2023-12-20T00:07:02;62.00;;;60.33;;
81006;SDS011;70472;47.592;17.640;2023-12-20T00:07:35;58.27;;;58.00;;
81006;SDS011;70472;47.592;17.640;2023-12-20T00:08:07;60.10;;;59.97;;
81006;SDS011;70472;47.592;17.640;2023-12-20T00:08:41;62.33;;;61.57;;
81006;SDS011;70472;47.592;17.640;2023-12-20T00:09:13;58.93;;;58.53;;
81006;SDS011;70472;47.592;17.640;2023-12-20T00:09:46;60.43;;;60.03;;
81006;SDS011;70472;47.592;17.640;2023-12-20T00:10:18;58.90;;;58.43;;
81006;SDS011;70472;47.592;17.640;2023-12-20T00:10:51;59.30;;;58.33;;
81006;SDS011;70472;47.592;17.640;2023-12-20T00:11:23;55.80;;;55.80;;
81006;SDS011;70472;47.592;17.640;2023-12-20T00:11:56;57.87;;;57.83;;
81006;SDS011;70472;47.592;17.640;2023-12-20T00:12:28;57.10;;;57.00;;
81006;SDS011;70472;47.592;17.640;2023-12-20T00:13:01;56.83;;;55.93;;
81006;SDS011;70472;47.592;17.640;2023-12-20T00:13:33;57.73;;;57.10;;
81006;SDS011;70472;47.592;17.640;2023-12-20T00:14:06;57.27;;;57.03;;
81006;SDS011;70472;47.592;17.640;2023-12-20T00:14:38;57.93;;;57.67;;
81006;SDS011;70472;47.592;17.640;2023-12-20T00:15:10;56.47;;;55.90;;
81006;SDS011;70472;47.592;17.640;2023-12-20T00:15:43;58.10;;;57.47;;
81006;SDS011;70472;47.592;17.640;2023-12-20T00:16:17;59.07;;;58.40;;
81006;SDS011;70472;47.592;17.640;2023-12-20T00:16:49;58.83;;;57.53;;
81006;SDS011;70472;47.592;17.640;2023-12-20T00:17:21;57.67;;;57.43;;
81006;SDS011;70472;47.592;17.640;2023-12-20T00:17:54;59.63;;;58.43;;
81006;SDS011;70472;47.592;17.640;2023-12-20T00:18:26;59.83;;;58.33;;
81006;SDS011;70472;47.592;17.640;2023-12-20T00:18:59;55.60;;;55.30;;
81006;SDS011;70472;47.592;17.640;2023-12-20T00:19:31;56.27;;;55.20;;
81006;SDS011;70472;47.592;17.640;2023-12-20T00:20:04;58.53;;;57.20;;
81006;SDS011;70472;47.592;17.640;2023-12-20T00:20:37;58.40;;;57.83;;
81006;SDS011;70472;47.592;17.640;2023-12-20T00:21:10;60.17;;;59.57;;
81006;SDS011;70472;47.592;17.640;2023-12-20T00:21:42;61.67;;;61.27;;
81006;SDS011;70472;47.592;17.640;2023-12-20T00:22:15;60.03;;;59.53;;
81006;SDS011;70472;47.592;17.640;2023-12-20T00:22:47;57.83;;;56.70;;
81006;SDS011;70472;47.592;17.640;2023-12-20T00:23:20;58.70;;;58.43;;
81006;SDS011;70472;47.592;17.640;2023-12-20T00:23:52;58.43;;;58.00;;
81006;SDS011;70472;47.592;17.640;2023-12-20T00:24:26;58.57;;;58.57;;
81006;SDS011;70472;47.592;17.640;2023-12-20T00:25:01;59.37;;;58.37;;
81006;SDS011;70472;47.592;17.640;2023-12-20T00:25:35;59.70;;;58.07;;
81006;SDS011;70472;47.592;17.640;2023-12-20T00:26:07;57.13;;;56.90;;
81006;SDS011;70472;47.592;17.640;2023-12-20T00:26:40;61.27;;;59.80;;
81006;SDS011;70472;47.592;17.640;2023-12-20T00:27:12;61.17;;;59.37;;
81006;SDS011;70472;47.592;17.640;2023-12-20T00:27:45;59.00;;;57.43;;
81006;SDS011;70472;47.592;17.640;2023-12-20T00:28:17;59.97;;;58.93;;
81006;SDS011;70472;47.592;17.640;2023-12-20T00:28:49;58.63;;;58.63;;
81006;SDS011;70472;47.592;17.640;2023-12-20T00:29:22;59.40;;;59.17;;
81006;SDS011;70472;47.592;17.640;2023-12-20T00:29:54;60.33;;;59.67;;
81006;SDS011;70472;47.592;17.640;2023-12-20T00:30:26;61.23;;;60.37;;
81006;SDS011;70472;47.592;17.640;2023-12-20T00:30:59;59.43;;;59.33;;
81006;SDS011;70472;47.592;17.640;2023-12-20T00:31:32;58.10;;;58.10;;
81006;SDS011;70472;47.592;17.640;2023-12-20T00:32:04;60.20;;;58.90;;
81006;SDS011;70472;47.592;17.640;2023-12-20T00:32:37;61.40;;;60.50;;
81006;SDS011;70472;47.592;17.640;2023-12-20T00:33:10;59.00;;;58.90;;
81006;SDS011;70472;47.592;17.640;2023-12-20T00:33:42;59.60;;;59.10;;
81006;SDS011;70472;47.592;17.640;2023-12-20T00:34:15;58.70;;;58.27;;
81006;SDS011;70472;47.592;17.640;2023-12-20T00:34:47;60.40;;;59.47;;
81006;SDS011;70472;47.592;17.640;2023-12-20T00:35:20;60.17;;;59.70;;
81006;SDS011;70472;47.592;17.640;2023-12-20T00:35:52;61.13;;;60.97;;
81006;SDS011;70472;47.592;17.640;2023-12-20T00:36:24;59.83;;;59.83;;
81006;SDS011;70472;47.592;17.640;2023-12-20T00:36:57;58.90;;;58.90;;
81006;SDS011;70472;47.592;17.640;2023-12-20T00:37:29;61.13;;;61.13;;
81006;SDS011;70472;47.592;17.640;2023-12-20T00:38:02;59.53;;;59.30;;
81006;SDS011;70472;47.592;17.640;2023-12-20T00:38:34;59.47;;;59.27;;
81006;SDS011;70472;47.592;17.640;2023-12-20T00:39:07;59.83;;;59.03;;
81006;SDS011;70472;47.592;17.640;2023-12-20T00:39:39;60.53;;;60.07;;
81006;SDS011;70472;47.592;17.640;2023-12-20T00:40:12;59.07;;;58.43;;
81006;SDS011;70472;47.592;17.640;2023-12-20T00:40:44;57.57;;;57.20;;
81006;SDS011;70472;47.592;17.640;2023-12-20T00:41:16;55.10;;;55.10;;
81006;SDS011;70472;47.592;17.640;2023-12-20T00:41:49;56.50;;;55.93;;
81006;SDS011;70472;47.592;17.640;2023-12-20T00:42:21;56.10;;;54.73;;
81006;SDS011;70472;47.592;17.640;2023-12-20T00:42:53;56.30;;;54.83;;
81006;SDS011;70472;47.592;17.640;2023-12-20T00:43:26;55.87;;;55.53;;
81006;SDS011;70472;47.592;17.640;2023-12-20T00:43:58;58.20;;;58.13;;
81006;SDS011;70472;47.592;17.640;2023-12-20T00:44:30;57.93;;;57.90;;
81006;SDS011;70472;47.592;17.640;2023-12-20T00:45:03;57.03;;;56.60;;
81006;SDS011;70472;47.592;17.640;2023-12-20T00:45:36;59.27;;;59.13;;
81006;SDS011;70472;47.592;17.640;2023-12-20T00:46:09;60.10;;;60.07;;
81006;SDS011;70472;47.592;17.640;2023-12-20T00:46:41;58.93;;;58.93;;
81006;SDS011;70472;47.592;17.640;2023-12-20T00:47:14;60.27;;;60.10;;
81006;SDS011;70472;47.592;17.640;2023-12-20T00:47:46;60.93;;;60.77;;
81006;SDS011;70472;47.592;17.640;2023-12-20T00:48:19;60.23;;;59.87;;
81006;SDS011;70472;47.592;17.640;2023-12-20T00:48:51;61.70;;;61.10;;
81006;SDS011;70472;47.592;17.640;2023-12-20T00:49:23;64.80;;;63.40;;
81006;SDS011;70472;47.592;17.640;2023-12-20T00:49:56;64.07;;;62.53;;
81006;SDS011;70472;47.592;17.640;2023-12-20T00:50:29;62.40;;;60.93;;
81006;SDS011;70472;47.592;17.640;2023-12-20T00:51:01;62.50;;;61.13;;
81006;SDS011;70472;47.592;17.640;2023-12-20T00:51:34;63.07;;;61.73;;
81006;SDS011;70472;47.592;17.640;2023-12-20T00:52:06;63.17;;;61.83;;
81006;SDS011;70472;47.592;17.640;2023-12-20T00:52:39;62.27;;;61.60;;
81006;SDS011;70472;47.592;17.640;2023-12-20T00:53:11;63.50;;;62.23;;
81006;SDS011;70472;47.592;17.640;2023-12-20T00:53:43;63.10;;;61.87;;
81006;SDS011;70472;47.592;17.640;2023-12-20T00:54:16;62.77;;;61.20;;
81006;SDS011;70472;47.592;17.640;2023-12-20T00:54:48;60.97;;;60.40;;
81006;SDS011;70472;47.592;17.640;2023-12-20T00:55:21;62.67;;;61.90;;
81006;SDS011;70472;47.592;17.640;2023-12-20T00:55:53;64.30;;;62.93;;
81006;SDS011;70472;47.592;17.640;2023-12-20T00:56:26;62.73;;;62.13;;
81006;SDS011;70472;47.592;17.640;2023-12-20T00:56:58;64.70;;;64.03;;
81006;SDS011;70472;47.592;17.640;2023-12-20T00:57:31;63.33;;;62.70;;
81006;SDS011;70472;47.592;17.640;2023-12-20T00:58:03;62.30;;;61.30;;
81006;SDS011;70472;47.592;17.640;2023-12-20T00:58:37;61.77;;;61.00;;
81006;SDS011;70472;47.592;17.640;2023-12-20T00:59:09;60.60;;;60.07;;
81006;SDS011;70472;47.592;17.640;2023-12-20T00:59:41;61.07;;;60.17;;
81006;SDS011;70472;47.592;17.640;2023-12-20T01:00:14;61.23;;;60.40;;
81006;SDS011;70472;47.592;17.640;2023-12-20T01:00:47;58.87;;;58.37;;
81006;SDS011;70472;47.592;17.640;2023-12-20T01:01:19;57.73;;;57.60;;
81006;SDS011;70472;47.592;17.640;2023-12-20T01:01:53;59.70;;;59.07;;
81006;SDS011;70472;47.592;17.640;2023-12-20T01:02:25;60.23;;;58.87;;
81006;SDS011;70472;47.592;17.640;2023-12-20T01:02:57;63.03;;;61.33;;
81006;SDS011;70472;47.592;17.640;2023-12-20T01:03:30;60.93;;;60.50;;
81006;SDS011;70472;47.592;17.640;2023-12-20T01:04:02;60.90;;;59.50;;
81006;SDS011;70472;47.592;17.640;2023-12-20T01:04:35;62.43;;;61.57;;
81006;SDS011;70472;47.592;17.640;2023-12-20T01:05:07;62.40;;;62.27;;
81006;SDS011;70472;47.592;17.640;2023-12-20T01:05:40;62.83;;;61.77;;
81006;SDS011;70472;47.592;17.640;2023-12-20T01:06:12;63.53;;;62.10;;
81006;SDS011;70472;47.592;17.640;2023-12-20T01:06:45;61.93;;;60.37;;
81006;SDS011;70472;47.592;17.640;2023-12-20T01:07:17;63.07;;;61.70;;
81006;SDS011;70472;47.592;17.640;2023-12-20T01:07:50;64.07;;;62.90;;
81006;SDS011;70472;47.592;17.640;2023-12-20T01:08:22;62.50;;;61.53;;
81006;SDS011;70472;47.592;17.640;2023-12-20T01:08:55;63.07;;;61.70;;
81006;SDS011;70472;47.592;17.640;2023-12-20T01:09:27;60.43;;;60.17;;
81006;SDS011;70472;47.592;17.640;2023-12-20T01:10:00;62.30;;;61.90;;
81006;SDS011;70472;47.592;17.640;2023-12-20T01:10:33;63.50;;;62.93;;
81006;SDS011;70472;47.592;17.640;2023-12-20T01:11:05;64.63;;;64.17;;
81006;SDS011;70472;47.592;17.640;2023-12-20T01:11:38;64.10;;;63.93;;
81006;SDS011;70472;47.592;17.640;2023-12-20T01:12:10;63.97;;;63.73;;
81006;SDS011;70472;47.592;17.640;2023-12-20T01:12:43;61.97;;;61.97;;
81006;SDS011;70472;47.592;17.640;2023-12-20T01:13:15;63.30;;;62.87;;
81006;SDS011;70472;47.592;17.640;2023-12-20T01:13:48;63.30;;;63.03;;
81006;SDS011;70472;47.592;17.640;2023-12-20T01:14:20;62.73;;;62.17;;
81006;SDS011;70472;47.592;17.640;2023-12-20T01:14:54;64.20;;;63.83;;
81006;SDS011;70472;47.592;17.640;2023-12-20T01:15:26;61.23;;;61.03;;
81006;SDS011;70472;47.592;17.640;2023-12-20T01:15:58;63.37;;;62.83;;
81006;SDS011;70472;47.592;17.640;2023-12-20T01:16:31;60.80;;;59.53;;
81006;SDS011;70472;47.592;17.640;2023-12-20T01:17:05;64.13;;;63.30;;
81006;SDS011;70472;47.592;17.640;2023-12-20T01:17:37;62.97;;;62.70;;
81006;SDS011;70472;47.592;17.640;2023-12-20T01:18:10;64.47;;;64.20;;
81006;SDS011;70472;47.592;17.640;2023-12-20T01:18:42;63.67;;;62.97;;
81006;SDS011;70472;47.592;17.640;2023-12-20T01:19:14;64.23;;;62.80;;
81006;SDS011;70472;47.592;17.640;2023-12-20T01:19:47;64.43;;;63.00;;
81006;SDS011;70472;47.592;17.640;2023-12-20T01:20:19;63.50;;;62.10;;
81006;SDS011;70472;47.592;17.640;2023-12-20T01:20:53;65.37;;;63.87;;
81006;SDS011;70472;47.592;17.640;2023-12-20T01:21:26;62.20;;;61.20;;
81006;SDS011;70472;47.592;17.640;2023-12-20T01:21:58;62.63;;;60.93;;
81006;SDS011;70472;47.592;17.640;2023-12-20T01:22:31;63.93;;;62.17;;
81006;SDS011;70472;47.592;17.640;2023-12-20T01:23:04;63.93;;;62.20;;
81006;SDS011;70472;47.592;17.640;2023-12-20T01:23:37;64.20;;;62.40;;
81006;SDS011;70472;47.592;17.640;2023-12-20T01:24:09;64.10;;;62.47;;
81006;SDS011;70472;47.592;17.640;2023-12-20T01:24:42;64.40;;;63.00;;
81006;SDS011;70472;47.592;17.640;2023-12-20T01:25:14;62.27;;;62.17;;
81006;SDS011;70472;47.592;17.640;2023-12-20T01:25:46;60.77;;;60.57;;
81006;SDS011;70472;47.592;17.640;2023-12-20T01:26:20;60.80;;;60.57;;
81006;SDS011;70472;47.592;17.640;2023-12-20T01:26:52;62.07;;;61.07;;
81006;SDS011;70472;47.592;17.640;2023-12-20T01:27:24;62.50;;;61.30;;
81006;SDS011;70472;47.592;17.640;2023-12-20T01:27:57;63.87;;;62.13;;
81006;SDS011;70472;47.592;17.640;2023-12-20T01:28:29;63.17;;;62.50;;
81006;SDS011;70472;47.592;17.640;2023-12-20T01:29:01;62.73;;;61.63;;
81006;SDS011;70472;47.592;17.640;2023-12-20T01:29:34;62.77;;;62.47;;
81006;SDS011;70472;47.592;17.640;2023-12-20T01:30:06;64.97;;;64.20;;
81006;SDS011;70472;47.592;17.640;2023-12-20T01:30:39;62.77;;;62.10;;
81006;SDS011;70472;47.592;17.640;2023-12-20T01:31:12;63.77;;;63.30;;
81006;SDS011;70472;47.592;17.640;2023-12-20T01:31:44;65.43;;;63.93;;
81006;SDS011;70472;47.592;17.640;2023-12-20T01:32:16;63.00;;;61.13;;
81006;SDS011;70472;47.592;17.640;2023-12-20T01:32:49;62.93;;;61.53;;
81006;SDS011;70472;47.592;17.640;2023-12-20T01:33:21;62.83;;;62.17;;
81006;SDS011;70472;47.592;17.640;2023-12-20T01:33:54;64.23;;;63.87;;
81006;SDS011;70472;47.592;17.640;2023-12-20T01:34:26;63.57;;;62.37;;
81006;SDS011;70472;47.592;17.640;2023-12-20T01:34:59;63.80;;;62.50;;
81006;SDS011;70472;47.592;17.640;2023-12-20T01:35:32;62.20;;;61.17;;
81006;SDS011;70472;47.592;17.640;2023-12-20T01:36:04;60.57;;;60.10;;
81006;SDS011;70472;47.592;17.640;2023-12-20T01:36:37;59.90;;;59.63;;
81006;SDS011;70472;47.592;17.640;2023-12-20T01:37:09;60.40;;;59.30;;
81006;SDS011;70472;47.592;17.640;2023-12-20T01:37:42;61.87;;;60.70;;
81006;SDS011;70472;47.592;17.640;2023-12-20T01:38:14;61.63;;;61.53;;
81006;SDS011;70472;47.592;17.640;2023-12-20T01:38:47;62.53;;;61.40;;
81006;SDS011;70472;47.592;17.640;2023-12-20T01:39:19;60.70;;;59.23;;
81006;SDS011;70472;47.592;17.640;2023-12-20T01:39:51;61.20;;;60.47;;
81006;SDS011;70472;47.592;17.640;2023-12-20T01:40:24;63.63;;;62.17;;
81006;SDS011;70472;47.592;17.640;2023-12-20T01:40:56;64.37;;;63.17;;
81006;SDS011;70472;47.592;17.640;2023-12-20T01:41:29;60.93;;;60.83;;
81006;SDS011;70472;47.592;17.640;2023-12-20T01:42:01;60.10;;;59.60;;
81006;SDS011;70472;47.592;17.640;2023-12-20T01:42:33;59.83;;;59.03;;
81006;SDS011;70472;47.592;17.640;2023-12-20T01:43:08;58.63;;;58.20;;
81006;SDS011;70472;47.592;17.640;2023-12-20T01:43:41;62.17;;;61.17;;
81006;SDS011;70472;47.592;17.640;2023-12-20T01:44:14;60.53;;;60.20;;
81006;SDS011;70472;47.592;17.640;2023-12-20T01:44:47;60.20;;;59.50;;
81006;SDS011;70472;47.592;17.640;2023-12-20T01:45:21;57.40;;;57.07;;
81006;SDS011;70472;47.592;17.640;2023-12-20T01:45:54;58.03;;;57.37;;
81006;SDS011;70472;47.592;17.640;2023-12-20T01:46:29;62.13;;;61.37;;
81006;SDS011;70472;47.592;17.640;2023-12-20T01:47:02;60.03;;;59.20;;
81006;SDS011;70472;47.592;17.640;2023-12-20T01:47:35;61.70;;;60.00;;
81006;SDS011;70472;47.592;17.640;2023-12-20T01:48:08;61.67;;;60.70;;
81006;SDS011;70472;47.592;17.640;2023-12-20T01:48:42;61.90;;;60.57;;
81006;SDS011;70472;47.592;17.640;2023-12-20T01:49:15;62.00;;;60.13;;
81006;SDS011;70472;47.592;17.640;2023-12-20T01:49:48;62.27;;;61.10;;
81006;SDS011;70472;47.592;17.640;2023-12-20T01:50:21;60.50;;;59.97;;
81006;SDS011;70472;47.592;17.640;2023-12-20T01:50:55;60.40;;;59.33;;
81006;SDS011;70472;47.592;17.640;2023-12-20T01:51:28;61.67;;;60.93;;
81006;SDS011;70472;47.592;17.640;2023-12-20T01:52:00;60.23;;;59.83;;
81006;SDS011;70472;47.592;17.640;2023-12-20T01:52:33;59.23;;;58.67;;
81006;SDS011;70472;47.592;17.640;2023-12-20T01:53:07;61.93;;;61.30;;
81006;SDS011;70472;47.592;17.640;2023-12-20T01:53:40;62.13;;;60.97;;
81006;SDS011;70472;47.592;17.640;2023-12-20T01:54:15;61.37;;;60.20;;
81006;SDS011;70472;47.592;17.640;2023-12-20T01:54:49;61.47;;;60.10;;
81006;SDS011;70472;47.592;17.640;2023-12-20T01:55:21;63.57;;;61.93;;
81006;SDS011;70472;47.592;17.640;2023-12-20T01:55:54;63.27;;;62.17;;
81006;SDS011;70472;47.592;17.640;2023-12-20T01:56:29;62.83;;;61.97;;
81006;SDS011;70472;47.592;17.640;2023-12-20T01:57:04;61.40;;;61.17;;
81006;SDS011;70472;47.592;17.640;2023-12-20T01:57:38;64.33;;;63.27;;
81006;SDS011;70472;47.592;17.640;2023-12-20T01:58:12;63.57;;;62.27;;
81006;SDS011;70472;47.592;17.640;2023-12-20T01:58:46;61.87;;;60.33;;
81006;SDS011;70472;47.592;17.640;2023-12-20T01:59:20;60.60;;;60.47;;
81006;SDS011;70472;47.592;17.640;2023-12-20T01:59:53;62.23;;;61.03;;
81006;SDS011;70472;47.592;17.640;2023-12-20T02:00:26;62.97;;;61.40;;
81006;SDS011;70472;47.592;17.640;2023-12-20T02:01:00;62.80;;;61.23;;
81006;SDS011;70472;47.592;17.640;2023-12-20T02:01:33;59.83;;;59.40;;
81006;SDS011;70472;47.592;17.640;2023-12-20T02:02:06;60.97;;;59.57;;
81006;SDS011;70472;47.592;17.640;2023-12-20T02:02:42;62.13;;;60.37;;
81006;SDS011;70472;47.592;17.640;2023-12-20T02:03:16;63.57;;;61.83;;
81006;SDS011;70472;47.592;17.640;2023-12-20T02:03:50;62.53;;;61.57;;
81006;SDS011;70472;47.592;17.640;2023-12-20T02:04:24;61.40;;;60.77;;
81006;SDS011;70472;47.592;17.640;2023-12-20T02:04:57;61.97;;;61.23;;
81006;SDS011;70472;47.592;17.640;2023-12-20T02:05:30;60.70;;;60.53;;
81006;SDS011;70472;47.592;17.640;2023-12-20T02:06:05;59.30;;;59.17;;
81006;SDS011;70472;47.592;17.640;2023-12-20T02:06:39;61.27;;;60.23;;
81006;SDS011;70472;47.592;17.640;2023-12-20T02:07:12;61.27;;;60.57;;
81006;SDS011;70472;47.592;17.640;2023-12-20T02:07:45;60.73;;;60.37;;
81006;SDS011;70472;47.592;17.640;2023-12-20T02:08:18;58.77;;;58.73;;
81006;SDS011;70472;47.592;17.640;2023-12-20T02:08:50;58.20;;;57.80;;
81006;SDS011;70472;47.592;17.640;2023-12-20T02:09:22;59.70;;;59.13;;
81006;SDS011;70472;47.592;17.640;2023-12-20T02:09:55;58.97;;;58.93;;
81006;SDS011;70472;47.592;17.640;2023-12-20T02:10:27;61.30;;;61.07;;
81006;SDS011;70472;47.592;17.640;2023-12-20T02:11:01;60.67;;;60.27;;
81006;SDS011;70472;47.592;17.640;2023-12-20T02:11:34;60.50;;;60.30;;
81006;SDS011;70472;47.592;17.640;2023-12-20T02:12:07;59.17;;;58.30;;
81006;SDS011;70472;47.592;17.640;2023-12-20T02:12:40;60.33;;;59.67;;
81006;SDS011;70472;47.592;17.640;2023-12-20T02:13:13;61.33;;;59.60;;
81006;SDS011;70472;47.592;17.640;2023-12-20T02:13:45;60.50;;;60.27;;
81006;SDS011;70472;47.592;17.640;2023-12-20T02:14:17;59.03;;;58.83;;
81006;SDS011;70472;47.592;17.640;2023-12-20T02:14:50;58.03;;;57.73;;
81006;SDS011;70472;47.592;17.640;2023-12-20T02:15:22;58.40;;;58.00;;
81006;SDS011;70472;47.592;17.640;2023-12-20T02:15:55;59.80;;;58.83;;
81006;SDS011;70472;47.592;17.640;2023-12-20T02:16:27;59.20;;;58.30;;
81006;SDS011;70472;47.592;17.640;2023-12-20T02:17:00;57.83;;;57.83;;
81006;SDS011;70472;47.592;17.640;2023-12-20T02:17:32;58.40;;;58.10;;
81006;SDS011;70472;47.592;17.640;2023-12-20T02:18:06;59.87;;;59.73;;
81006;SDS011;70472;47.592;17.640;2023-12-20T02:18:38;58.20;;;58.13;;
81006;SDS011;70472;47.592;17.640;2023-12-20T02:19:14;56.90;;;56.90;;
81006;SDS011;70472;47.592;17.640;2023-12-20T02:19:49;58.63;;;58.60;;
81006;SDS011;70472;47.592;17.640;2023-12-20T02:20:22;59.43;;;58.73;;
81006;SDS011;70472;47.592;17.640;2023-12-20T02:20:54;56.83;;;56.80;;
81006;SDS011;70472;47.592;17.640;2023-12-20T02:21:33;58.30;;;57.53;;
81006;SDS011;70472;47.592;17.640;2023-12-20T02:22:06;56.13;;;56.10;;
81006;SDS011;70472;47.592;17.640;2023-12-20T02:22:42;57.63;;;57.63;;
81006;SDS011;70472;47.592;17.640;2023-12-20T02:23:14;58.70;;;58.63;;
81006;SDS011;70472;47.592;17.640;2023-12-20T02:23:47;58.93;;;58.43;;
81006;SDS011;70472;47.592;17.640;2023-12-20T02:24:19;58.87;;;58.47;;
81006;SDS011;70472;47.592;17.640;2023-12-20T02:24:51;60.07;;;59.83;;
81006;SDS011;70472;47.592;17.640;2023-12-20T02:25:24;58.47;;;58.20;;
81006;SDS011;70472;47.592;17.640;2023-12-20T02:25:56;58.37;;;57.97;;
81006;SDS011;70472;47.592;17.640;2023-12-20T02:26:28;59.13;;;58.43;;
81006;SDS011;70472;47.592;17.640;2023-12-20T02:27:01;59.40;;;58.77;;
81006;SDS011;70472;47.592;17.640;2023-12-20T02:27:34;57.27;;;57.27;;
81006;SDS011;70472;47.592;17.640;2023-12-20T02:28:07;58.53;;;58.43;;
81006;SDS011;70472;47.592;17.640;2023-12-20T02:28:39;59.63;;;58.37;;
81006;SDS011;70472;47.592;17.640;2023-12-20T02:29:12;60.10;;;59.53;;
81006;SDS011;70472;47.592;17.640;2023-12-20T02:29:44;60.63;;;59.93;;
81006;SDS011;70472;47.592;17.640;2023-12-20T02:30:19;64.60;;;63.73;;
81006;SDS011;70472;47.592;17.640;2023-12-20T02:30:51;62.70;;;62.07;;
81006;SDS011;70472;47.592;17.640;2023-12-20T02:31:24;60.83;;;60.17;;
81006;SDS011;70472;47.592;17.640;2023-12-20T02:31:57;59.83;;;59.50;;
81006;SDS011;70472;47.592;17.640;2023-12-20T02:32:29;61.13;;;60.17;;
81006;SDS011;70472;47.592;17.640;2023-12-20T02:33:02;61.87;;;60.23;;
81006;SDS011;70472;47.592;17.640;2023-12-20T02:33:42;60.67;;;59.83;;
81006;SDS011;70472;47.592;17.640;2023-12-20T02:34:14;61.93;;;61.07;;
81006;SDS011;70472;47.592;17.640;2023-12-20T02:34:47;62.93;;;61.13;;
81006;SDS011;70472;47.592;17.640;2023-12-20T02:35:20;62.27;;;61.83;;
81006;SDS011;70472;47.592;17.640;2023-12-20T02:35:52;61.27;;;60.27;;
81006;SDS011;70472;47.592;17.640;2023-12-20T02:36:24;61.00;;;59.60;;
81006;SDS011;70472;47.592;17.640;2023-12-20T02:36:57;62.20;;;61.30;;
81006;SDS011;70472;47.592;17.640;2023-12-20T02:37:29;61.10;;;59.60;;
81006;SDS011;70472;47.592;17.640;2023-12-20T02:38:01;59.30;;;57.60;;
81006;SDS011;70472;47.592;17.640;2023-12-20T02:38:34;58.20;;;58.10;;
81006;SDS011;70472;47.592;17.640;2023-12-20T02:39:07;59.57;;;59.53;;
81006;SDS011;70472;47.592;17.640;2023-12-20T02:39:39;59.37;;;59.30;;
81006;SDS011;70472;47.592;17.640;2023-12-20T02:40:11;58.80;;;58.60;;
81006;SDS011;70472;47.592;17.640;2023-12-20T02:40:44;54.07;;;54.07;;
81006;SDS011;70472;47.592;17.640;2023-12-20T02:41:16;58.57;;;58.10;;
81006;SDS011;70472;47.592;17.640;2023-12-20T02:41:48;61.23;;;59.80;;
81006;SDS011;70472;47.592;17.640;2023-12-20T02:42:21;61.67;;;60.60;;
81006;SDS011;70472;47.592;17.640;2023-12-20T02:42:54;61.87;;;60.90;;
81006;SDS011;70472;47.592;17.640;2023-12-20T02:43:26;61.97;;;60.33;;
81006;SDS011;70472;47.592;17.640;2023-12-20T02:44:00;58.03;;;57.67;;
81006;SDS011;70472;47.592;17.640;2023-12-20T02:44:33;59.80;;;58.87;;
81006;SDS011;70472;47.592;17.640;2023-12-20T02:45:06;58.17;;;56.90;;
81006;SDS011;70472;47.592;17.640;2023-12-20T02:45:41;56.83;;;55.80;;
81006;SDS011;70472;47.592;17.640;2023-12-20T02:46:13;54.83;;;54.30;;
81006;SDS011;70472;47.592;17.640;2023-12-20T02:46:49;53.93;;;53.70;;
81006;SDS011;70472;47.592;17.640;2023-12-20T02:47:21;54.47;;;53.97;;
81006;SDS011;70472;47.592;17.640;2023-12-20T02:47:53;53.63;;;52.43;;
81006;SDS011;70472;47.592;17.640;2023-12-20T02:48:26;52.07;;;51.00;;
81006;SDS011;70472;47.592;17.640;2023-12-20T02:48:58;50.87;;;50.43;;
81006;SDS011;70472;47.592;17.640;2023-12-20T02:49:31;52.83;;;51.47;;
81006;SDS011;70472;47.592;17.640;2023-12-20T02:50:03;51.03;;;50.47;;
81006;SDS011;70472;47.592;17.640;2023-12-20T02:50:35;51.40;;;51.03;;
81006;SDS011;70472;47.592;17.640;2023-12-20T02:51:08;50.77;;;50.67;;
81006;SDS011;70472;47.592;17.640;2023-12-20T02:51:40;50.77;;;50.73;;
81006;SDS011;70472;47.592;17.640;2023-12-20T02:52:12;51.87;;;51.63;;
81006;SDS011;70472;47.592;17.640;2023-12-20T02:52:45;51.00;;;50.83;;
81006;SDS011;70472;47.592;17.640;2023-12-20T02:53:17;50.13;;;49.70;;
81006;SDS011;70472;47.592;17.640;2023-12-20T02:53:49;51.17;;;50.43;;
81006;SDS011;70472;47.592;17.640;2023-12-20T02:54:22;51.87;;;51.53;;
81006;SDS011;70472;47.592;17.640;2023-12-20T02:54:54;49.77;;;49.13;;
81006;SDS011;70472;47.592;17.640;2023-12-20T02:55:28;50.33;;;49.87;;
81006;SDS011;70472;47.592;17.640;2023-12-20T02:56:01;49.53;;;49.20;;
81006;SDS011;70472;47.592;17.640;2023-12-20T02:56:33;48.70;;;48.57;;
81006;SDS011;70472;47.592;17.640;2023-12-20T02:57:06;47.70;;;47.50;;
81006;SDS011;70472;47.592;17.640;2023-12-20T02:57:38;48.57;;;48.13;;
81006;SDS011;70472;47.592;17.640;2023-12-20T02:58:10;50.00;;;49.47;;
81006;SDS011;70472;47.592;17.640;2023-12-20T02:58:43;49.53;;;49.37;;
81006;SDS011;70472;47.592;17.640;2023-12-20T02:59:16;50.67;;;50.60;;
81006;SDS011;70472;47.592;17.640;2023-12-20T02:59:48;51.17;;;50.80;;
81006;SDS011;70472;47.592;17.640;2023-12-20T03:00:21;50.63;;;50.00;;
81006;SDS011;70472;47.592;17.640;2023-12-20T03:00:54;49.13;;;48.30;;
81006;SDS011;70472;47.592;17.640;2023-12-20T03:01:27;48.63;;;47.60;;
81006;SDS011;70472;47.592;17.640;2023-12-20T03:02:03;50.50;;;49.27;;
81006;SDS011;70472;47.592;17.640;2023-12-20T03:02:36;48.03;;;47.60;;
81006;SDS011;70472;47.592;17.640;2023-12-20T03:03:08;50.77;;;50.20;;
81006;SDS011;70472;47.592;17.640;2023-12-20T03:03:41;47.87;;;47.17;;
81006;SDS011;70472;47.592;17.640;2023-12-20T03:04:13;46.77;;;45.87;;
81006;SDS011;70472;47.592;17.640;2023-12-20T03:04:46;46.10;;;45.77;;
81006;SDS011;70472;47.592;17.640;2023-12-20T03:05:18;45.43;;;45.40;;
81006;SDS011;70472;47.592;17.640;2023-12-20T03:05:51;47.30;;;46.87;;
81006;SDS011;70472;47.592;17.640;2023-12-20T03:06:25;47.77;;;47.23;;
81006;SDS011;70472;47.592;17.640;2023-12-20T03:06:57;46.03;;;45.83;;
81006;SDS011;70472;47.592;17.640;2023-12-20T03:07:29;46.03;;;45.90;;
81006;SDS011;70472;47.592;17.640;2023-12-20T03:08:02;46.30;;;45.37;;
81006;SDS011;70472;47.592;17.640;2023-12-20T03:08:34;45.77;;;44.60;;
81006;SDS011;70472;47.592;17.640;2023-12-20T03:09:07;44.43;;;44.43;;